sensor_id;sensor_type;location;lat;lon;timestamp;pressure;altitude;pressure_sealevel;temperature;humidity
67013;BME280;53926;47.406;19.188;2023-03-04T00:02:08;100437.59;;;-3.29;100.00
67013;BME280;53926;47.406;19.188;2023-03-04T00:04:35;100440.37;;;-3.43;100.00
67013;BME280;53926;47.406;19.188;2023-03-04T00:07:01;100442.12;;;-3.10;100.00
67013;BME280;53926;47.406;19.188;2023-03-04T00:09:28;100442.12;;;-3.32;100.00
67013;BME280;53926;47.406;19.188;2023-03-04T00:11:55;100441.41;;;-3.34;100.00
67013;BME280;53926;47.406;19.188;2023-03-04T00:14:21;100440.19;;;-3.64;100.00
67013;BME280;53926;47.406;19.188;2023-03-04T00:16:49;100436.97;;;-3.66;100.00
67013;BME280;53926;47.406;19.188;2023-03-04T00:19:16;100433.19;;;-3.49;100.00
67013;BME280;53926;47.406;19.188;2023-03-04T00:21:42;100427.41;;;-3.40;100.00
67013;BME280;53926;47.406;19.188;2023-03-04T00:24:09;100426.69;;;-3.42;100.00
67013;BME280;53926;47.406;19.188;2023-03-04T00:26:35;100429.47;;;-3.45;100.00
67013;BME280;53926;47.406;19.188;2023-03-04T00:29:02;100429.00;;;-3.50;100.00
67013;BME280;53926;47.406;19.188;2023-03-04T00:31:29;100429.28;;;-3.31;100.00
67013;BME280;53926;47.406;19.188;2023-03-04T00:33:55;100433.75;;;-3.57;100.00
67013;BME280;53926;47.406;19.188;2023-03-04T00:36:22;100429.00;;;-3.50;100.00
67013;BME280;53926;47.406;19.188;2023-03-04T00:38:48;100425.66;;;-3.51;100.00
67013;BME280;53926;47.406;19.188;2023-03-04T00:41:15;100431.59;;;-3.74;100.00
67013;BME280;53926;47.406;19.188;2023-03-04T00:43:42;100427.37;;;-3.51;100.00
67013;BME280;53926;47.406;19.188;2023-03-04T00:46:08;100430.91;;;-3.77;100.00
67013;BME280;53926;47.406;19.188;2023-03-04T00:48:35;100426.81;;;-3.90;100.00
67013;BME280;53926;47.406;19.188;2023-03-04T00:51:04;100430.69;;;-3.62;100.00
67013;BME280;53926;47.406;19.188;2023-03-04T00:53:31;100420.06;;;-3.67;100.00
67013;BME280;53926;47.406;19.188;2023-03-04T00:55:57;100424.22;;;-3.66;100.00
67013;BME280;53926;47.406;19.188;2023-03-04T00:58:24;100418.16;;;-3.88;100.00
67013;BME280;53926;47.406;19.188;2023-03-04T01:00:51;100419.41;;;-3.93;100.00
67013;BME280;53926;47.406;19.188;2023-03-04T01:03:17;100418.00;;;-3.98;100.00
67013;BME280;53926;47.406;19.188;2023-03-04T01:05:44;100416.44;;;-3.76;100.00
67013;BME280;53926;47.406;19.188;2023-03-04T01:08:11;100407.13;;;-4.00;100.00
67013;BME280;53926;47.406;19.188;2023-03-04T01:10:37;100410.31;;;-3.85;100.00
67013;BME280;53926;47.406;19.188;2023-03-04T01:13:04;100409.09;;;-3.45;100.00
67013;BME280;53926;47.406;19.188;2023-03-04T01:15:31;100402.06;;;-3.42;100.00
67013;BME280;53926;47.406;19.188;2023-03-04T01:17:57;100403.91;;;-3.21;100.00
67013;BME280;53926;47.406;19.188;2023-03-04T01:20:24;100405.06;;;-3.48;100.00
67013;BME280;53926;47.406;19.188;2023-03-04T01:22:51;100405.75;;;-3.57;100.00
67013;BME280;53926;47.406;19.188;2023-03-04T01:25:17;100387.53;;;-3.64;100.00
67013;BME280;53926;47.406;19.188;2023-03-04T01:27:44;100397.03;;;-3.77;100.00
67013;BME280;53926;47.406;19.188;2023-03-04T01:30:11;100395.19;;;-4.10;100.00
67013;BME280;53926;47.406;19.188;2023-03-04T01:32:38;100389.41;;;-4.12;100.00
67013;BME280;53926;47.406;19.188;2023-03-04T01:35:05;100383.34;;;-4.23;100.00
67013;BME280;53926;47.406;19.188;2023-03-04T01:37:31;100388.66;;;-3.90;100.00
67013;BME280;53926;47.406;19.188;2023-03-04T01:39:58;100387.25;;;-3.95;100.00
67013;BME280;53926;47.406;19.188;2023-03-04T01:42:26;100382.91;;;-4.17;100.00
67013;BME280;53926;47.406;19.188;2023-03-04T01:44:55;100384.34;;;-4.25;100.00
67013;BME280;53926;47.406;19.188;2023-03-04T01:47:23;100376.31;;;-4.43;100.00
67013;BME280;53926;47.406;19.188;2023-03-04T01:49:54;100378.25;;;-4.47;100.00
67013;BME280;53926;47.406;19.188;2023-03-04T01:52:21;100372.50;;;-4.14;100.00
67013;BME280;53926;47.406;19.188;2023-03-04T01:54:48;100369.31;;;-3.93;100.00
67013;BME280;53926;47.406;19.188;2023-03-04T01:57:23;100363.78;;;-3.87;100.00
67013;BME280;53926;47.406;19.188;2023-03-04T02:00:30;100372.94;;;-3.96;100.00
67013;BME280;53926;47.406;19.188;2023-03-04T02:03:09;100377.47;;;-4.23;100.00
67013;BME280;53926;47.406;19.188;2023-03-04T02:05:39;100381.34;;;-3.95;100.00
67013;BME280;53926;47.406;19.188;2023-03-04T02:08:07;100369.28;;;-4.40;100.00
67013;BME280;53926;47.406;19.188;2023-03-04T02:10:34;100365.00;;;-4.39;100.00
67013;BME280;53926;47.406;19.188;2023-03-04T02:13:02;100360.53;;;-4.60;100.00
67013;BME280;53926;47.406;19.188;2023-03-04T02:15:29;100358.78;;;-4.59;100.00
67013;BME280;53926;47.406;19.188;2023-03-04T02:17:56;100358.28;;;-4.16;100.00
67013;BME280;53926;47.406;19.188;2023-03-04T02:20:31;100349.09;;;-4.30;100.00
67013;BME280;53926;47.406;19.188;2023-03-04T02:23:11;100350.94;;;-4.56;100.00
67013;BME280;53926;47.406;19.188;2023-03-04T02:28:35;100349.88;;;-4.65;100.00
67013;BME280;53926;47.406;19.188;2023-03-04T02:31:02;100344.28;;;-4.70;100.00
67013;BME280;53926;47.406;19.188;2023-03-04T02:33:29;100335.75;;;-4.69;100.00
67013;BME280;53926;47.406;19.188;2023-03-04T02:35:56;100334.28;;;-4.85;100.00
67013;BME280;53926;47.406;19.188;2023-03-04T02:38:22;100328.19;;;-4.58;100.00
67013;BME280;53926;47.406;19.188;2023-03-04T02:40:51;100331.94;;;-4.51;100.00
67013;BME280;53926;47.406;19.188;2023-03-04T02:43:20;100331.66;;;-4.59;100.00
67013;BME280;53926;47.406;19.188;2023-03-04T02:45:49;100330.84;;;-4.83;100.00
67013;BME280;53926;47.406;19.188;2023-03-04T02:48:20;100326.16;;;-4.53;100.00
67013;BME280;53926;47.406;19.188;2023-03-04T02:50:51;100325.59;;;-4.69;100.00
67013;BME280;53926;47.406;19.188;2023-03-04T02:53:19;100321.97;;;-4.78;100.00
67013;BME280;53926;47.406;19.188;2023-03-04T02:55:46;100319.63;;;-5.05;100.00
67013;BME280;53926;47.406;19.188;2023-03-04T02:58:13;100317.72;;;-4.77;100.00
67013;BME280;53926;47.406;19.188;2023-03-04T03:00:40;100315.19;;;-4.77;100.00
67013;BME280;53926;47.406;19.188;2023-03-04T03:03:07;100313.06;;;-4.83;100.00
67013;BME280;53926;47.406;19.188;2023-03-04T03:05:34;100308.19;;;-4.87;100.00
67013;BME280;53926;47.406;19.188;2023-03-04T03:08:02;100310.75;;;-4.87;100.00
67013;BME280;53926;47.406;19.188;2023-03-04T03:10:29;100315.09;;;-4.89;100.00
67013;BME280;53926;47.406;19.188;2023-03-04T03:12:56;100310.12;;;-4.90;100.00
67013;BME280;53926;47.406;19.188;2023-03-04T03:15:22;100309.44;;;-4.92;100.00
67013;BME280;53926;47.406;19.188;2023-03-04T03:17:49;100310.88;;;-5.01;100.00
67013;BME280;53926;47.406;19.188;2023-03-04T03:20:16;100322.91;;;-4.79;100.00
67013;BME280;53926;47.406;19.188;2023-03-04T03:22:42;100310.06;;;-5.01;100.00
67013;BME280;53926;47.406;19.188;2023-03-04T03:25:11;100309.06;;;-4.99;100.00
67013;BME280;53926;47.406;19.188;2023-03-04T03:27:38;100311.81;;;-5.02;100.00
67013;BME280;53926;47.406;19.188;2023-03-04T03:30:06;100307.22;;;-4.97;100.00
67013;BME280;53926;47.406;19.188;2023-03-04T03:32:33;100295.97;;;-4.81;100.00
67013;BME280;53926;47.406;19.188;2023-03-04T03:35:00;100287.19;;;-5.26;100.00
67013;BME280;53926;47.406;19.188;2023-03-04T03:37:26;100288.97;;;-5.15;100.00
67013;BME280;53926;47.406;19.188;2023-03-04T03:39:53;100287.84;;;-5.11;100.00
67013;BME280;53926;47.406;19.188;2023-03-04T03:42:20;100292.50;;;-5.42;100.00
67013;BME280;53926;47.406;19.188;2023-03-04T03:44:46;100293.25;;;-5.15;100.00
67013;BME280;53926;47.406;19.188;2023-03-04T03:47:13;100291.50;;;-5.15;100.00
67013;BME280;53926;47.406;19.188;2023-03-04T03:49:39;100280.69;;;-5.30;100.00
67013;BME280;53926;47.406;19.188;2023-03-04T03:52:06;100288.31;;;-5.43;100.00
67013;BME280;53926;47.406;19.188;2023-03-04T03:54:35;100283.19;;;-5.54;100.00
67013;BME280;53926;47.406;19.188;2023-03-04T03:57:02;100292.50;;;-5.54;100.00
67013;BME280;53926;47.406;19.188;2023-03-04T03:59:28;100293.38;;;-5.30;100.00
67013;BME280;53926;47.406;19.188;2023-03-04T04:01:55;100295.00;;;-5.29;100.00
67013;BME280;53926;47.406;19.188;2023-03-04T04:04:22;100295.25;;;-5.45;100.00
67013;BME280;53926;47.406;19.188;2023-03-04T04:06:49;100294.72;;;-5.37;100.00
67013;BME280;53926;47.406;19.188;2023-03-04T04:09:15;100304.03;;;-5.37;100.00
67013;BME280;53926;47.406;19.188;2023-03-04T04:11:42;100294.41;;;-5.45;100.00
67013;BME280;53926;47.406;19.188;2023-03-04T04:14:11;100293.34;;;-5.54;100.00
67013;BME280;53926;47.406;19.188;2023-03-04T04:16:38;100282.31;;;-5.29;100.00
67013;BME280;53926;47.406;19.188;2023-03-04T04:19:05;100291.00;;;-5.57;100.00
67013;BME280;53926;47.406;19.188;2023-03-04T04:21:32;100283.59;;;-5.73;100.00
67013;BME280;53926;47.406;19.188;2023-03-04T04:23:59;100285.00;;;-5.69;100.00
67013;BME280;53926;47.406;19.188;2023-03-04T04:26:25;100281.16;;;-5.62;100.00
67013;BME280;53926;47.406;19.188;2023-03-04T04:28:52;100288.88;;;-5.63;100.00
67013;BME280;53926;47.406;19.188;2023-03-04T04:31:19;100284.63;;;-5.76;100.00
67013;BME280;53926;47.406;19.188;2023-03-04T04:33:45;100285.72;;;-5.67;100.00
67013;BME280;53926;47.406;19.188;2023-03-04T04:36:13;100279.56;;;-5.76;100.00
67013;BME280;53926;47.406;19.188;2023-03-04T04:38:41;100288.97;;;-5.65;100.00
67013;BME280;53926;47.406;19.188;2023-03-04T04:41:26;100287.44;;;-5.93;100.00
67013;BME280;53926;47.406;19.188;2023-03-04T04:43:54;100294.13;;;-5.79;100.00
67013;BME280;53926;47.406;19.188;2023-03-04T04:46:21;100286.25;;;-5.87;100.00
67013;BME280;53926;47.406;19.188;2023-03-04T04:48:48;100283.69;;;-5.62;100.00
67013;BME280;53926;47.406;19.188;2023-03-04T04:51:15;100281.88;;;-5.85;100.00
67013;BME280;53926;47.406;19.188;2023-03-04T04:53:41;100276.72;;;-5.97;100.00
67013;BME280;53926;47.406;19.188;2023-03-04T04:56:16;100281.75;;;-5.58;100.00
67013;BME280;53926;47.406;19.188;2023-03-04T04:58:43;100283.84;;;-6.02;100.00
67013;BME280;53926;47.406;19.188;2023-03-04T05:01:11;100281.88;;;-5.85;100.00
67013;BME280;53926;47.406;19.188;2023-03-04T05:03:38;100279.22;;;-5.58;100.00
67013;BME280;53926;47.406;19.188;2023-03-04T05:06:06;100280.56;;;-5.78;100.00
67013;BME280;53926;47.406;19.188;2023-03-04T05:08:34;100279.84;;;-5.67;100.00
67013;BME280;53926;47.406;19.188;2023-03-04T05:11:01;100289.47;;;-5.85;100.00
67013;BME280;53926;47.406;19.188;2023-03-04T05:13:30;100286.84;;;-5.84;100.00
67013;BME280;53926;47.406;19.188;2023-03-04T05:15:57;100288.37;;;-6.07;100.00
67013;BME280;53926;47.406;19.188;2023-03-04T05:18:25;100290.63;;;-6.02;100.00
67013;BME280;53926;47.406;19.188;2023-03-04T05:21:00;100289.78;;;-5.90;100.00
67013;BME280;53926;47.406;19.188;2023-03-04T05:23:36;100290.50;;;-6.01;100.00
67013;BME280;53926;47.406;19.188;2023-03-04T05:26:05;100299.94;;;-5.77;100.00
67013;BME280;53926;47.406;19.188;2023-03-04T05:28:34;100297.38;;;-5.51;100.00
67013;BME280;53926;47.406;19.188;2023-03-04T05:31:01;100297.97;;;-5.35;100.00
67013;BME280;53926;47.406;19.188;2023-03-04T05:33:29;100294.66;;;-5.61;100.00
67013;BME280;53926;47.406;19.188;2023-03-04T05:35:56;100303.97;;;-5.49;100.00
67013;BME280;53926;47.406;19.188;2023-03-04T05:38:23;100306.81;;;-5.53;100.00
67013;BME280;53926;47.406;19.188;2023-03-04T05:40:56;100311.19;;;-5.55;100.00
67013;BME280;53926;47.406;19.188;2023-03-04T05:43:24;100311.94;;;-5.16;100.00
67013;BME280;53926;47.406;19.188;2023-03-04T05:45:50;100306.31;;;-5.09;100.00
67013;BME280;53926;47.406;19.188;2023-03-04T05:48:17;100315.41;;;-5.17;100.00
67013;BME280;53926;47.406;19.188;2023-03-04T05:50:44;100313.56;;;-5.15;100.00
67013;BME280;53926;47.406;19.188;2023-03-04T05:53:11;100316.69;;;-4.99;100.00
67013;BME280;53926;47.406;19.188;2023-03-04T05:55:37;100316.47;;;-5.09;100.00
67013;BME280;53926;47.406;19.188;2023-03-04T05:58:04;100317.09;;;-5.05;100.00
67013;BME280;53926;47.406;19.188;2023-03-04T06:00:31;100317.47;;;-4.98;100.00
67013;BME280;53926;47.406;19.188;2023-03-04T06:02:57;100324.28;;;-4.99;100.00
67013;BME280;53926;47.406;19.188;2023-03-04T06:05:24;100322.63;;;-4.87;100.00
67013;BME280;53926;47.406;19.188;2023-03-04T06:07:50;100331.28;;;-4.65;100.00
67013;BME280;53926;47.406;19.188;2023-03-04T06:10:17;100324.63;;;-4.55;100.00
67013;BME280;53926;47.406;19.188;2023-03-04T06:12:44;100322.44;;;-4.49;100.00
67013;BME280;53926;47.406;19.188;2023-03-04T06:15:11;100321.34;;;-4.33;100.00
67013;BME280;53926;47.406;19.188;2023-03-04T06:17:40;100322.75;;;-4.29;100.00
67013;BME280;53926;47.406;19.188;2023-03-04T06:20:08;100320.03;;;-4.15;100.00
67013;BME280;53926;47.406;19.188;2023-03-04T06:22:35;100319.63;;;-3.97;100.00
67013;BME280;53926;47.406;19.188;2023-03-04T06:25:03;100320.12;;;-3.69;100.00
67013;BME280;53926;47.406;19.188;2023-03-04T06:27:29;100327.97;;;-3.50;100.00
67013;BME280;53926;47.406;19.188;2023-03-04T06:29:56;100327.28;;;-3.29;100.00
67013;BME280;53926;47.406;19.188;2023-03-04T06:32:23;100336.63;;;-2.96;100.00
67013;BME280;53926;47.406;19.188;2023-03-04T06:34:50;100329.09;;;-2.97;100.00
67013;BME280;53926;47.406;19.188;2023-03-04T06:37:17;100334.12;;;-2.63;100.00
67013;BME280;53926;47.406;19.188;2023-03-04T06:39:44;100330.06;;;-2.34;100.00
67013;BME280;53926;47.406;19.188;2023-03-04T06:42:11;100334.31;;;-2.23;100.00
67013;BME280;53926;47.406;19.188;2023-03-04T06:44:38;100335.87;;;-2.10;100.00
67013;BME280;53926;47.406;19.188;2023-03-04T06:47:05;100342.66;;;-2.00;100.00
67013;BME280;53926;47.406;19.188;2023-03-04T06:49:32;100338.44;;;-1.89;100.00
67013;BME280;53926;47.406;19.188;2023-03-04T06:51:58;100336.66;;;-1.68;100.00
67013;BME280;53926;47.406;19.188;2023-03-04T06:54:25;100337.12;;;-1.53;100.00
67013;BME280;53926;47.406;19.188;2023-03-04T06:56:51;100334.91;;;-1.36;100.00
67013;BME280;53926;47.406;19.188;2023-03-04T06:59:18;100332.97;;;-1.13;100.00
67013;BME280;53926;47.406;19.188;2023-03-04T07:01:45;100332.06;;;-1.02;100.00
67013;BME280;53926;47.406;19.188;2023-03-04T07:04:12;100341.22;;;-0.80;100.00
67013;BME280;53926;47.406;19.188;2023-03-04T07:06:40;100337.88;;;-0.71;100.00
67013;BME280;53926;47.406;19.188;2023-03-04T07:09:06;100332.25;;;-0.45;100.00
67013;BME280;53926;47.406;19.188;2023-03-04T07:11:33;100332.66;;;-0.21;100.00
67013;BME280;53926;47.406;19.188;2023-03-04T07:14:00;100329.38;;;0.07;100.00
67013;BME280;53926;47.406;19.188;2023-03-04T07:16:27;100336.72;;;0.67;100.00
67013;BME280;53926;47.406;19.188;2023-03-04T07:18:53;100333.97;;;1.24;100.00
67013;BME280;53926;47.406;19.188;2023-03-04T07:21:20;100328.97;;;1.76;100.00
67013;BME280;53926;47.406;19.188;2023-03-04T07:23:50;100336.84;;;2.01;100.00
67013;BME280;53926;47.406;19.188;2023-03-04T07:26:18;100328.03;;;2.64;100.00
67013;BME280;53926;47.406;19.188;2023-03-04T07:28:47;100334.50;;;3.36;100.00
67013;BME280;53926;47.406;19.188;2023-03-04T07:33:45;100329.06;;;3.88;100.00
67013;BME280;53926;47.406;19.188;2023-03-04T07:36:11;100324.94;;;4.75;100.00
67013;BME280;53926;47.406;19.188;2023-03-04T07:38:47;100325.53;;;5.16;100.00
67013;BME280;53926;47.406;19.188;2023-03-04T07:41:14;100322.66;;;5.58;100.00
67013;BME280;53926;47.406;19.188;2023-03-04T07:43:42;100316.66;;;5.95;98.12
67013;BME280;53926;47.406;19.188;2023-03-04T07:46:09;100319.13;;;6.26;96.88
67013;BME280;53926;47.406;19.188;2023-03-04T07:48:36;100317.50;;;6.70;91.60
67013;BME280;53926;47.406;19.188;2023-03-04T07:51:13;100311.66;;;7.69;100.00
67013;BME280;53926;47.406;19.188;2023-03-04T07:53:41;100307.97;;;7.85;81.76
67013;BME280;53926;47.406;19.188;2023-03-04T07:56:16;100314.19;;;9.49;90.65
67013;BME280;53926;47.406;19.188;2023-03-04T07:58:45;100308.34;;;10.14;85.81
67013;BME280;53926;47.406;19.188;2023-03-04T08:01:14;100306.09;;;11.72;80.09
67013;BME280;53926;47.406;19.188;2023-03-04T08:03:41;100299.28;;;12.64;82.34
67013;BME280;53926;47.406;19.188;2023-03-04T08:06:10;100302.19;;;12.86;64.49
67013;BME280;53926;47.406;19.188;2023-03-04T08:08:37;100304.41;;;12.70;53.45
67013;BME280;53926;47.406;19.188;2023-03-04T08:11:09;100311.41;;;13.19;55.48
67013;BME280;53926;47.406;19.188;2023-03-04T08:13:36;100296.72;;;14.36;52.74
67013;BME280;53926;47.406;19.188;2023-03-04T08:16:03;100301.56;;;14.04;43.89
67013;BME280;53926;47.406;19.188;2023-03-04T08:18:34;100307.47;;;14.63;52.11
67013;BME280;53926;47.406;19.188;2023-03-04T08:21:00;100306.41;;;14.36;41.63
67013;BME280;53926;47.406;19.188;2023-03-04T08:23:27;100303.53;;;15.41;39.74
67013;BME280;53926;47.406;19.188;2023-03-04T08:25:53;100302.06;;;14.99;40.05
67013;BME280;53926;47.406;19.188;2023-03-04T08:28:20;100299.91;;;16.42;38.25
67013;BME280;53926;47.406;19.188;2023-03-04T08:30:52;100296.97;;;16.16;36.46
67013;BME280;53926;47.406;19.188;2023-03-04T08:33:19;100300.31;;;15.05;37.14
67013;BME280;53926;47.406;19.188;2023-03-04T08:35:45;100289.00;;;12.81;39.85
67013;BME280;53926;47.406;19.188;2023-03-04T08:38:12;100290.50;;;13.31;38.74
67013;BME280;53926;47.406;19.188;2023-03-04T08:40:39;100291.78;;;12.00;38.11
67013;BME280;53926;47.406;19.188;2023-03-04T08:43:06;100295.97;;;12.01;37.88
67013;BME280;53926;47.406;19.188;2023-03-04T08:45:32;100291.94;;;12.05;35.63
67013;BME280;53926;47.406;19.188;2023-03-04T08:47:59;100294.53;;;11.36;37.52
67013;BME280;53926;47.406;19.188;2023-03-04T08:50:26;100288.22;;;11.51;39.70
67013;BME280;53926;47.406;19.188;2023-03-04T08:52:52;100285.63;;;11.94;37.36
67013;BME280;53926;47.406;19.188;2023-03-04T08:55:21;100280.84;;;11.66;37.18
67013;BME280;53926;47.406;19.188;2023-03-04T08:57:48;100281.56;;;11.98;37.28
67013;BME280;53926;47.406;19.188;2023-03-04T09:00:15;100281.31;;;11.56;39.17
67013;BME280;53926;47.406;19.188;2023-03-04T09:02:42;100282.00;;;12.32;36.73
67013;BME280;53926;47.406;19.188;2023-03-04T09:05:09;100280.78;;;12.65;37.65
67013;BME280;53926;47.406;19.188;2023-03-04T09:07:35;100276.75;;;13.23;37.55
67013;BME280;53926;47.406;19.188;2023-03-04T09:10:03;100282.44;;;13.32;36.40
67013;BME280;53926;47.406;19.188;2023-03-04T09:12:30;100281.28;;;12.07;37.19
67013;BME280;53926;47.406;19.188;2023-03-04T09:14:57;100267.72;;;12.96;37.54
67013;BME280;53926;47.406;19.188;2023-03-04T09:17:37;100277.94;;;13.09;35.73
67013;BME280;53926;47.406;19.188;2023-03-04T09:20:05;100273.91;;;13.25;37.06
67013;BME280;53926;47.406;19.188;2023-03-04T09:22:33;100272.25;;;13.54;38.07
67013;BME280;53926;47.406;19.188;2023-03-04T09:25:02;100274.09;;;12.69;39.01
67013;BME280;53926;47.406;19.188;2023-03-04T09:27:29;100279.97;;;13.73;35.92
67013;BME280;53926;47.406;19.188;2023-03-04T09:29:56;100269.97;;;13.46;38.33
67013;BME280;53926;47.406;19.188;2023-03-04T09:32:23;100276.91;;;13.76;36.01
67013;BME280;53926;47.406;19.188;2023-03-04T09:34:49;100266.38;;;14.00;37.09
67013;BME280;53926;47.406;19.188;2023-03-04T09:37:16;100274.19;;;13.71;37.01
67013;BME280;53926;47.406;19.188;2023-03-04T09:39:43;100261.47;;;13.09;37.84
67013;BME280;53926;47.406;19.188;2023-03-04T09:42:32;100259.69;;;12.48;40.18
67013;BME280;53926;47.406;19.188;2023-03-04T09:45:01;100258.22;;;12.22;39.46
67013;BME280;53926;47.406;19.188;2023-03-04T09:47:28;100255.97;;;12.56;38.47
67013;BME280;53926;47.406;19.188;2023-03-04T09:49:59;100256.09;;;12.61;39.92
67013;BME280;53926;47.406;19.188;2023-03-04T09:58:24;100247.09;;;12.76;38.68
67013;BME280;53926;47.406;19.188;2023-03-04T10:06:46;100226.22;;;12.99;37.66
67013;BME280;53926;47.406;19.188;2023-03-04T10:09:26;100227.16;;;13.17;37.72
67013;BME280;53926;47.406;19.188;2023-03-04T10:12:10;100227.41;;;13.63;35.69
67013;BME280;53926;47.406;19.188;2023-03-04T10:14:44;100218.47;;;14.69;33.38
67013;BME280;53926;47.406;19.188;2023-03-04T10:24:48;100210.31;;;14.53;34.10
67013;BME280;53926;47.406;19.188;2023-03-04T10:27:20;100207.97;;;15.36;33.89
67013;BME280;53926;47.406;19.188;2023-03-04T10:29:49;100215.03;;;15.36;32.30
67013;BME280;53926;47.406;19.188;2023-03-04T10:32:19;100209.81;;;14.85;33.48
67013;BME280;53926;47.406;19.188;2023-03-04T10:34:46;100206.66;;;14.25;33.79
67013;BME280;53926;47.406;19.188;2023-03-04T10:37:13;100208.47;;;14.82;34.33
67013;BME280;53926;47.406;19.188;2023-03-04T10:39:42;100196.69;;;15.58;34.24
67013;BME280;53926;47.406;19.188;2023-03-04T10:44:57;100184.66;;;15.79;32.53
67013;BME280;53926;47.406;19.188;2023-03-04T10:47:27;100189.63;;;14.40;34.04
67013;BME280;53926;47.406;19.188;2023-03-04T10:50:01;100186.13;;;14.63;34.01
67013;BME280;53926;47.406;19.188;2023-03-04T10:55:00;100169.94;;;15.78;33.22
67013;BME280;53926;47.406;19.188;2023-03-04T10:57:36;100162.44;;;16.74;31.53
67013;BME280;53926;47.406;19.188;2023-03-04T11:02:46;100175.00;;;13.46;33.87
67013;BME280;53926;47.406;19.188;2023-03-04T11:07:50;100164.09;;;14.47;32.08
67013;BME280;53926;47.406;19.188;2023-03-04T11:10:28;100171.12;;;14.75;31.22
67013;BME280;53926;47.406;19.188;2023-03-04T11:13:00;100166.28;;;15.01;32.45
67013;BME280;53926;47.406;19.188;2023-03-04T11:15:29;100162.34;;;14.53;32.54
67013;BME280;53926;47.406;19.188;2023-03-04T11:17:59;100151.00;;;15.15;31.47
67013;BME280;53926;47.406;19.188;2023-03-04T11:20:40;100157.09;;;15.37;31.15
67013;BME280;53926;47.406;19.188;2023-03-04T11:23:16;100145.06;;;14.69;31.58
67013;BME280;53926;47.406;19.188;2023-03-04T11:25:54;100149.41;;;14.00;31.53
67013;BME280;53926;47.406;19.188;2023-03-04T11:31:15;100139.72;;;14.46;29.59
67013;BME280;53926;47.406;19.188;2023-03-04T11:33:53;100153.59;;;14.47;32.07
67013;BME280;53926;47.406;19.188;2023-03-04T11:39:23;100145.22;;;13.87;33.14
67013;BME280;53926;47.406;19.188;2023-03-04T11:44:42;100144.59;;;13.68;32.50
67013;BME280;53926;47.406;19.188;2023-03-04T11:50:02;100131.53;;;14.43;31.68
67013;BME280;53926;47.406;19.188;2023-03-04T12:06:04;100112.00;;;14.34;32.41
67013;BME280;53926;47.406;19.188;2023-03-04T12:14:26;100094.91;;;14.14;32.46
67013;BME280;53926;47.406;19.188;2023-03-04T12:22:42;100094.84;;;13.28;34.79
67013;BME280;53926;47.406;19.188;2023-03-04T12:25:40;100088.16;;;14.18;32.38
67013;BME280;53926;47.406;19.188;2023-03-04T12:31:06;100080.09;;;13.62;33.55
67013;BME280;53926;47.406;19.188;2023-03-04T12:36:51;100071.81;;;14.11;34.72
67013;BME280;53926;47.406;19.188;2023-03-04T12:39:33;100065.62;;;13.71;34.80
67013;BME280;53926;47.406;19.188;2023-03-04T12:45:16;100068.69;;;13.80;36.56
67013;BME280;53926;47.406;19.188;2023-03-04T12:48:04;100055.00;;;14.07;36.49
67013;BME280;53926;47.406;19.188;2023-03-04T12:50:41;100054.22;;;14.23;33.77
67013;BME280;53926;47.406;19.188;2023-03-04T12:53:40;100054.25;;;13.66;35.71
67013;BME280;53926;47.406;19.188;2023-03-04T12:56:27;100054.91;;;14.02;35.81
67013;BME280;53926;47.406;19.188;2023-03-04T12:58:56;100053.97;;;14.08;36.58
67013;BME280;53926;47.406;19.188;2023-03-04T13:01:29;100041.13;;;14.23;35.06
67013;BME280;53926;47.406;19.188;2023-03-04T13:06:36;100033.81;;;14.25;34.85
67013;BME280;53926;47.406;19.188;2023-03-04T13:09:37;100030.97;;;14.10;33.52
67013;BME280;53926;47.406;19.188;2023-03-04T13:12:19;100032.34;;;13.84;35.61
67013;BME280;53926;47.406;19.188;2023-03-04T13:17:49;100022.81;;;12.96;37.20
67013;BME280;53926;47.406;19.188;2023-03-04T13:20:42;100007.28;;;13.30;38.50
67013;BME280;53926;47.406;19.188;2023-03-04T13:23:27;100012.44;;;14.00;37.04
67013;BME280;53926;47.406;19.188;2023-03-04T13:28:30;100006.25;;;13.43;36.60
67013;BME280;53926;47.406;19.188;2023-03-04T13:31:05;99994.66;;;13.27;35.87
67013;BME280;53926;47.406;19.188;2023-03-04T13:36:04;99993.66;;;13.28;38.55
67013;BME280;53926;47.406;19.188;2023-03-04T13:38:36;99980.59;;;12.76;37.01
67013;BME280;53926;47.406;19.188;2023-03-04T13:41:21;99981.38;;;13.29;36.33
67013;BME280;53926;47.406;19.188;2023-03-04T13:43:57;99971.37;;;13.26;35.77
67013;BME280;53926;47.406;19.188;2023-03-04T13:49:00;99976.13;;;13.69;35.50
67013;BME280;53926;47.406;19.188;2023-03-04T13:51:41;99964.38;;;14.06;34.90
67013;BME280;53926;47.406;19.188;2023-03-04T13:54:30;99965.81;;;13.80;37.64
67013;BME280;53926;47.406;19.188;2023-03-04T14:01:59;99945.25;;;13.14;35.63
67013;BME280;53926;47.406;19.188;2023-03-04T14:04:29;99940.00;;;13.26;36.28
67013;BME280;53926;47.406;19.188;2023-03-04T14:07:03;99934.25;;;12.59;36.85
67013;BME280;53926;47.406;19.188;2023-03-04T14:10:03;99932.94;;;12.97;35.56
67013;BME280;53926;47.406;19.188;2023-03-04T14:12:33;99934.38;;;13.17;34.32
67013;BME280;53926;47.406;19.188;2023-03-04T14:17:43;99941.75;;;13.20;32.62
67013;BME280;53926;47.406;19.188;2023-03-04T14:20:26;99939.37;;;13.06;32.27
67013;BME280;53926;47.406;19.188;2023-03-04T14:22:59;99928.12;;;12.65;32.37
67013;BME280;53926;47.406;19.188;2023-03-04T14:25:34;99927.72;;;12.85;32.50
67013;BME280;53926;47.406;19.188;2023-03-04T14:30:30;99936.66;;;12.02;32.01
67013;BME280;53926;47.406;19.188;2023-03-04T14:33:15;99937.22;;;12.04;31.59